Time;durP1;ratioP1;P1;durP2;ratioP2;P2;SDS_P1;SDS_P2;PMS_P1;PMS_P2;Temp;Humidity;BMP_temperature;BMP_pressure;BME280_temperature;BME280_humidity;BME280_pressure;Samples;Min_cycle;Max_cycle;Signal;HPM_P1;HPM_P2
2022/05/10 10:02:34;;;;;;;9.43;4.78;;;;;;;25.40;39.81;101559.13;6130165;23;20046;-80
2022/05/10 10:05:19;;;;;;;8.35;4.53;;;;;;;25.70;40.76;101558.03;6182729;23;20079;-81
2022/05/10 10:07:53;;;;;;;10.00;4.50;;;;;;;25.92;38.95;101556.91;6182911;23;20017;-81
2022/05/10 10:10:29;;;;;;;8.82;4.50;;;;;;;26.16;38.52;101565.59;6153160;23;20040;-81
2022/05/10 10:12:58;;;;;;;16.58;5.22;;;;;;;26.16;37.36;101554.72;6169123;23;20013;-81
2022/05/10 10:15:28;;;;;;;;;;;;;;;26.40;39.14;101546.00;6142991;23;20008;-82
2022/05/10 10:17:58;;;;;;;7.63;3.45;;;;;;;26.67;35.91;101539.81;6172805;23;19919;-80
2022/05/10 10:20:42;;;;;;;7.30;3.83;;;;;;;26.96;36.81;101538.53;6175835;23;20040;-80
2022/05/10 10:23:31;;;;;;;12.40;3.90;;;;;;;27.29;36.55;101546.72;6151868;23;20009;-82
2022/05/10 10:26:28;;;;;;;10.88;3.78;;;;;;;27.48;34.55;101538.75;6162193;23;20021;-81
2022/05/10 10:29:58;;;;;;;8.68;3.72;;;;;;;27.62;34.85;101548.56;6148112;23;20031;-81
2022/05/10 10:32:32;;;;;;;7.25;3.28;;;;;;;27.56;34.52;101556.78;6159112;23;20103;-82
2022/05/10 10:35:10;;;;;;;12.40;4.93;;;;;;;27.63;33.79;101546.69;6138157;23;20029;-81
2022/05/10 10:37:48;;;;;;;11.85;4.18;;;;;;;27.91;34.81;101540.06;6149490;23;21277;-82
2022/05/10 10:40:33;;;;;;;9.70;3.70;;;;;;;28.05;33.75;101539.00;6171648;23;20335;-83
2022/05/10 10:43:37;;;;;;;11.15;3.90;;;;;;;28.29;34.34;101531.09;6170192;23;20010;-82
2022/05/10 10:46:27;;;;;;;15.35;5.20;;;;;;;28.09;33.25;101528.47;6048241;23;20132;-82
2022/05/10 10:49:11;;;;;;;7.50;3.95;;;;;;;27.95;33.09;101538.63;6162797;23;20055;-82
2022/05/10 10:51:36;;;;;;;7.00;4.00;;;;;;;27.85;32.74;101528.13;6138283;23;20013;-81
2022/05/10 10:54:03;;;;;;;8.68;3.80;;;;;;;27.71;32.86;101527.34;6140028;23;20018;-82
2022/05/10 10:56:42;;;;;;;8.02;3.78;;;;;;;27.63;33.14;101514.78;6139542;23;20062;-81
2022/05/10 10:59:32;;;;;;;13.10;4.13;;;;;;;27.59;34.79;101515.41;6172675;23;20020;-81
2022/05/10 11:02:23;;;;;;;8.40;3.60;;;;;;;27.61;34.83;101516.03;6148204;23;20005;-82
2022/05/10 11:04:57;;;;;;;11.55;4.50;;;;;;;27.37;33.31;101520.31;6147635;23;20137;-82
2022/05/10 11:07:48;;;;;;;10.43;4.00;;;;;;;27.34;34.38;101505.19;6177200;23;20088;-83
2022/05/10 11:10:41;;;;;;;6.47;3.92;;;;;;;27.29;34.31;101507.72;6177631;23;20012;-81
2022/05/10 11:13:12;;;;;;;11.27;4.30;;;;;;;27.16;34.30;101504.97;6148269;23;20092;-81
2022/05/10 11:16:12;;;;;;;7.80;4.00;;;;;;;27.13;34.89;101503.53;6176367;23;19989;-81
2022/05/10 11:19:03;;;;;;;10.32;4.35;;;;;;;26.83;34.74;101501.25;6122385;23;20041;-81
2022/05/10 11:22:06;;;;;;;10.50;4.53;;;;;;;26.82;35.02;101502.28;6175967;23;20032;-80
2022/05/10 11:24:58;;;;;;;10.55;4.68;;;;;;;26.81;35.21;101497.03;6172156;23;20032;-82
2022/05/10 11:27:32;;;;;;;9.60;3.72;;;;;;;26.72;35.71;101497.25;6174649;23;20009;-82
2022/05/10 11:30:06;;;;;;;10.63;4.43;;;;;;;26.71;35.25;101492.00;6177556;23;20010;-82
2022/05/10 11:32:58;;;;;;;9.30;3.80;;;;;;;26.87;36.00;101486.13;6152150;23;20002;-83
2022/05/10 11:35:43;;;;;;;13.20;4.70;;;;;;;26.95;34.96;101479.63;6181113;23;19998;-83
2022/05/10 11:38:14;;;;;;;8.23;3.70;;;;;;;27.11;35.06;101476.47;6132413;23;20002;-83
2022/05/10 11:41:04;;;;;;;9.23;3.88;;;;;;;27.33;34.47;101484.44;6157761;23;20005;-82
2022/05/10 11:44:02;;;;;;;12.38;4.03;;;;;;;27.25;34.72;101479.19;6135410;23;19997;-83
2022/05/10 11:47:01;;;;;;;10.15;3.67;;;;;;;27.18;34.72;101478.34;6155461;23;20037;-84
2022/05/10 11:49:55;;;;;;;8.38;3.85;;;;;;;27.14;33.61;101464.28;6155702;23;20001;-84
2022/05/10 11:52:39;;;;;;;10.57;3.95;;;;;;;27.20;34.52;101473.53;6157187;23;20094;-82
2022/05/10 11:55:16;;;;;;;8.88;4.00;;;;;;;27.17;33.97;101472.06;6182080;23;20001;-84
2022/05/10 11:57:43;;;;;;;13.82;3.83;;;;;;;27.04;33.62;101466.63;6157472;23;20036;-84
2022/05/10 12:00:27;;;;;;;10.27;4.32;;;;;;;27.06;33.93;101472.69;6155212;23;20073;-84
2022/05/10 12:02:54;;;;;;;8.00;3.42;;;;;;;26.85;33.76;101474.63;6181545;23;20017;-83
2022/05/10 12:05:21;;;;;;;9.05;4.05;;;;;;;26.72;34.28;101471.88;6154642;23;20009;-82
2022/05/10 12:07:51;;;;;;;6.40;3.80;;;;;;;26.58;34.08;101468.31;6182036;23;20001;-83
2022/05/10 12:10:38;;;;;;;6.50;3.80;;;;;;;26.73;34.71;101463.50;6154915;23;20068;-83
2022/05/10 12:13:09;;;;;;;12.38;3.40;;;;;;;26.66;34.61;101464.53;6154071;23;19990;-83
2022/05/10 12:21:22;;;;;;;14.15;3.75;;;;;;;26.36;33.95;101457.59;6182058;23;20025;-83
2022/05/10 12:24:04;;;;;;;10.27;4.03;;;;;;;26.53;35.27;101459.88;6156925;23;20013;-83
2022/05/10 12:26:46;;;;;;;14.98;4.28;;;;;;;26.59;35.57;101451.72;6154472;23;20077;-83
2022/05/10 12:29:36;;;;;;;9.52;3.38;;;;;;;26.47;33.81;101452.56;6155144;23;20020;-83
2022/05/10 12:32:36;;;;;;;11.35;3.40;;;;;;;26.34;34.28;101446.03;6156612;23;19997;-82
2022/05/10 12:35:04;;;;;;;12.15;3.58;;;;;;;26.18;33.92;101446.44;6155352;23;20001;-83
2022/05/10 12:37:30;;;;;;;9.77;3.90;;;;;;;26.14;34.21;101439.75;6154913;23;20009;-83
2022/05/10 12:40:02;;;;;;;8.73;3.70;;;;;;;26.10;34.30;101446.66;6180809;23;20005;-83
2022/05/10 12:42:49;;;;;;;9.98;3.85;;;;;;;26.07;34.49;101433.44;6181109;23;20032;-83
2022/05/10 12:46:02;;;;;;;7.97;3.72;;;;;;;26.09;34.85;101442.25;6179631;23;20028;-82
2022/05/10 12:48:57;;;;;;;8.88;3.70;;;;;;;26.08;34.72;101429.66;6120052;23;20009;-83
2022/05/10 12:51:50;;;;;;;10.00;2.90;;;;;;;26.09;35.63;101431.34;6175382;23;20024;-82
2022/05/10 12:54:37;;;;;;;10.02;3.42;;;;;;;26.04;34.41;101427.34;6152396;23;20001;-83
2022/05/10 12:57:25;;;;;;;13.35;3.72;;;;;;;26.10;35.01;101424.88;6152325;23;20005;-81
2022/05/10 13:00:03;;;;;;;14.50;4.43;;;;;;;26.01;34.55;101419.63;6174948;23;20058;-82
2022/05/10 13:02:30;;;;;;;13.13;4.20;;;;;;;25.97;34.09;101428.41;6160787;23;20114;-81
2022/05/10 13:05:01;;;;;;;14.77;3.88;;;;;;;25.85;34.21;101423.53;6182168;23;20009;-81
2022/05/10 13:08:00;;;;;;;11.80;3.95;;;;;;;25.91;35.15;101419.13;6181512;23;20094;-81
2022/05/10 13:10:29;;;;;;;12.90;4.32;;;;;;;25.89;34.97;101415.78;6181190;23;19989;-81
2022/05/10 13:13:10;;;;;;;13.77;3.40;;;;;;;25.91;35.84;101416.41;6177360;23;20012;-81
2022/05/10 13:15:41;;;;;;;16.90;3.83;;;;;;;25.94;35.56;101407.84;6205244;22;20036;-81
2022/05/10 13:18:12;;;;;;;9.40;3.58;;;;;;;26.01;35.59;101403.28;6178920;23;20009;-81
2022/05/10 13:20:48;;;;;;;9.93;4.38;;;;;;;26.07;35.91;101414.41;6181533;23;19993;-80
2022/05/10 13:23:16;;;;;;;15.85;3.95;;;;;;;26.00;35.70;101387.16;6182400;23;19997;-81
2022/05/10 13:25:43;;;;;;;10.25;4.40;;;;;;;25.95;34.79;101395.09;6180132;23;20020;-81
2022/05/10 13:28:12;;;;;;;11.98;4.22;;;;;;;26.01;35.56;101384.25;6206075;22;20013;-82
2022/05/10 13:30:40;;;;;;;13.40;3.92;;;;;;;26.03;35.27;101382.16;6179680;23;20065;-81
2022/05/10 13:33:20;;;;;;;13.32;4.15;;;;;;;26.16;35.33;101389.50;6179559;23;20013;-81
2022/05/10 13:35:50;;;;;;;6.68;3.47;;;;;;;26.20;34.73;101395.34;6180592;23;19998;-81
2022/05/10 13:38:45;;;;;;;9.95;3.83;;;;;;;26.14;35.09;101383.41;6177003;23;19996;-81
2022/05/10 13:41:15;;;;;;;8.85;3.90;;;;;;;26.03;34.35;101384.88;6180217;23;20005;-81
2022/05/10 13:43:48;;;;;;;9.10;3.70;;;;;;;25.92;34.05;101371.00;6179479;23;20017;-82
2022/05/10 13:46:24;;;;;;;7.97;3.53;;;;;;;25.95;35.46;101370.59;6179593;23;20029;-81
2022/05/10 13:48:58;;;;;;;11.82;3.83;;;;;;;25.96;34.90;101373.13;6180877;23;20002;-81
2022/05/10 13:51:29;;;;;;;13.70;3.85;;;;;;;25.94;34.54;101369.72;6179135;23;20482;-82
2022/05/10 13:54:00;;;;;;;8.85;3.97;;;;;;;25.88;34.74;101367.00;6179129;23;20016;-82
2022/05/10 13:56:27;;;;;;;10.50;4.00;;;;;;;25.93;35.47;101359.91;6179596;23;20013;-81
2022/05/10 13:58:53;;;;;;;12.38;3.83;;;;;;;25.96;35.42;101358.66;6179849;23;20020;-81
2022/05/10 14:01:42;;;;;;;7.72;3.90;;;;;;;26.06;35.67;101353.66;6179190;23;19998;-81
2022/05/10 14:04:11;;;;;;;8.60;3.70;;;;;;;26.06;36.23;101355.53;6180630;23;20017;-80
2022/05/10 14:06:39;;;;;;;14.90;4.22;;;;;;;26.02;35.66;101349.69;6178916;23;20041;-81
2022/05/10 14:09:07;;;;;;;5.95;3.35;;;;;;;26.07;35.67;101351.78;6181402;23;19997;-81
2022/05/10 14:11:39;;;;;;;9.35;3.72;;;;;;;26.03;34.93;101352.19;6178581;23;20019;-81
2022/05/10 14:14:08;;;;;;;5.88;3.90;;;;;;;26.00;35.03;101355.34;6176201;23;19998;-81
2022/05/10 14:16:35;;;;;;;8.80;4.47;;;;;;;25.98;34.71;101359.28;6177990;23;20020;-81
2022/05/10 14:19:08;;;;;;;10.73;3.83;;;;;;;25.95;35.16;101346.09;6181445;23;20045;-81
2022/05/10 14:21:35;;;;;;;11.65;4.47;;;;;;;25.99;35.01;101350.94;6180909;23;20016;-81
2022/05/10 14:24:06;;;;;;;9.55;3.97;;;;;;;25.92;33.72;101344.63;6180902;23;20010;-80
2022/05/10 14:26:39;;;;;;;8.63;3.72;;;;;;;25.91;34.86;101337.47;6181342;23;19994;-81
2022/05/10 14:29:25;;;;;;;7.13;3.60;;;;;;;25.87;34.44;101338.97;6179679;23;20024;-81
2022/05/10 14:32:07;;;;;;;5.85;3.20;;;;;;;25.83;34.95;101337.69;6179979;23;20036;-81
2022/05/10 14:35:02;;;;;;;11.63;3.78;;;;;;;25.83;33.94;101326.78;6179352;23;20009;-81
2022/05/10 14:37:33;;;;;;;12.48;3.75;;;;;;;25.78;34.45;101346.47;6179667;23;19993;-81
2022/05/10 14:40:25;;;;;;;7.75;3.35;;;;;;;25.74;34.26;101333.50;6181260;23;20008;-81
2022/05/10 14:42:57;;;;;;;4.90;3.50;;;;;;;25.63;32.91;101345.78;6171510;23;20040;-81
2022/05/10 14:45:25;;;;;;;9.20;3.70;;;;;;;25.53;33.23;101340.78;6179903;23;20017;-81
2022/05/10 14:47:54;;;;;;;12.80;3.50;;;;;;;25.39;33.66;101334.44;6179182;23;20032;-81
2022/05/10 14:50:41;;;;;;;;;;;;;;;25.52;34.06;101346.41;6180600;23;20009;-81
2022/05/10 14:53:21;;;;;;;9.73;3.53;;;;;;;25.24;34.29;101337.28;6179540;23;19952;-81
2022/05/10 14:56:00;;;;;;;8.48;3.47;;;;;;;25.24;33.42;101348.16;6179820;23;20000;-80
2022/05/10 14:58:46;;;;;;;6.72;3.00;;;;;;;25.21;32.98;101334.97;6180551;23;20037;-80
2022/05/10 15:01:31;;;;;;;7.07;2.72;;;;;;;25.10;32.91;101339.09;6181684;23;20014;-80
2022/05/10 15:04:17;;;;;;;8.65;2.80;;;;;;;25.10;33.11;101324.69;6180102;23;20053;-81
2022/05/10 15:06:44;;;;;;;5.18;2.40;;;;;;;25.07;32.71;101335.97;6180747;23;20012;-81
2022/05/10 15:09:13;;;;;;;19.33;2.95;;;;;;;25.06;32.16;101335.13;6176017;23;20016;-81
2022/05/10 15:14:23;;;;;;;14.05;2.55;;;;;;;25.03;32.27;101331.94;6174728;23;20021;-80
2022/05/10 15:16:49;;;;;;;8.07;2.50;;;;;;;25.03;32.77;101327.38;6174908;23;20182;-81
2022/05/10 15:19:14;;;;;;;10.30;2.50;;;;;;;25.04;31.85;101334.47;6148370;23;20017;-81
2022/05/10 15:21:41;;;;;;;7.75;2.30;;;;;;;25.01;32.67;101328.59;6177374;23;19989;-81
2022/05/10 15:24:08;;;;;;;4.22;2.38;;;;;;;24.92;31.50;101336.09;6179393;23;20019;-80
2022/05/10 15:26:42;;;;;;;6.47;2.15;;;;;;;24.87;32.30;101333.13;6155010;23;20009;-81
2022/05/10 15:29:12;;;;;;;6.85;2.30;;;;;;;24.84;32.77;101337.06;6179320;23;20306;-81
2022/05/10 15:31:38;;;;;;;6.82;2.40;;;;;;;24.75;32.34;101336.41;6180582;23;20066;-81
2022/05/10 15:34:42;;;;;;;6.35;2.30;;;;;;;24.70;32.77;101336.16;6180991;23;20020;-81
2022/05/10 15:36:49;;;;;;;5.20;2.28;;;;;;;24.65;32.41;101333.22;6180990;23;20013;-81
2022/05/10 15:39:14;;;;;;;9.52;2.42;;;;;;;24.57;32.65;101327.94;6181181;23;20035;-81
2022/05/10 15:41:39;;;;;;;7.47;2.27;;;;;;;24.55;33.13;101333.56;6182155;23;20020;-82
2022/05/10 15:44:05;;;;;;;9.07;2.47;;;;;;;24.44;32.76;101333.25;6176367;23;20311;-81
2022/05/10 15:46:30;;;;;;;8.97;2.37;;;;;;;24.39;33.36;101337.38;6181836;23;20488;-81
2022/05/10 15:48:57;;;;;;;8.23;2.65;;;;;;;24.35;33.71;101327.13;6181253;23;20276;-82
2022/05/10 15:51:23;;;;;;;10.68;3.08;;;;;;;24.14;33.85;101336.13;6181607;23;20041;-82
2022/05/10 15:53:48;;;;;;;4.30;2.28;;;;;;;24.10;34.30;101338.41;6182000;23;19997;-81
2022/05/10 15:56:15;;;;;;;6.32;2.42;;;;;;;23.98;35.00;101329.09;6180049;23;20005;-82
2022/05/10 15:58:43;;;;;;;6.82;2.83;;;;;;;24.00;34.43;101337.91;6175974;23;20010;-82
2022/05/10 16:01:11;;;;;;;7.07;2.60;;;;;;;24.00;35.11;101343.31;6171109;23;19998;-83
2022/05/10 16:03:40;;;;;;;7.70;2.63;;;;;;;23.86;35.06;101331.47;6174775;23;20052;-82
2022/05/10 16:06:07;;;;;;;6.82;2.33;;;;;;;23.88;34.83;101334.88;6180329;23;20065;-82
2022/05/10 16:08:36;;;;;;;9.00;2.88;;;;;;;23.84;35.14;101338.97;6183522;23;20018;-81
2022/05/10 16:11:05;;;;;;;7.18;2.40;;;;;;;23.76;35.55;101339.91;6182553;23;20017;-83
2022/05/10 16:13:30;;;;;;;6.07;2.80;;;;;;;23.73;35.69;101329.47;6179714;23;20005;-83
2022/05/10 16:15:59;;;;;;;5.53;2.33;;;;;;;23.75;35.74;101338.25;6182111;23;19997;-82
2022/05/10 16:18:24;;;;;;;5.40;2.55;;;;;;;23.72;36.42;101340.50;6178574;23;20013;-83
2022/05/10 16:20:51;;;;;;;9.52;2.30;;;;;;;23.70;36.72;101329.84;6180174;23;20086;-83
2022/05/10 16:23:17;;;;;;;9.05;2.75;;;;;;;23.74;36.02;101328.41;6178886;23;20040;-82
2022/05/10 16:25:43;;;;;;;7.57;2.60;;;;;;;23.70;36.53;101329.84;6152495;23;19982;-83
2022/05/10 16:30:53;;;;;;;6.28;2.22;;;;;;;23.71;36.76;101333.38;6179597;23;20074;-82
2022/05/10 16:33:26;;;;;;;6.97;2.60;;;;;;;23.73;37.57;101336.75;6177923;23;20017;-82
2022/05/10 16:36:03;;;;;;;8.52;2.75;;;;;;;23.62;38.49;101328.09;6173538;23;20021;-81
2022/05/10 16:38:28;;;;;;;9.35;2.95;;;;;;;23.60;38.97;101332.03;6177623;23;20006;-81
2022/05/10 16:40:55;;;;;;;8.05;3.15;;;;;;;23.54;39.37;101330.91;6179345;23;20006;-83
2022/05/10 16:43:20;;;;;;;17.38;3.35;;;;;;;23.50;39.04;101335.06;6180840;23;20021;-82
2022/05/10 16:45:48;;;;;;;11.15;3.15;;;;;;;23.46;40.08;101341.88;6180383;23;20045;-82
2022/05/10 16:48:14;;;;;;;9.77;3.20;;;;;;;23.44;39.77;101342.06;6150679;23;20025;-81
2022/05/10 16:50:39;;;;;;;10.52;3.28;;;;;;;23.36;39.22;101333.22;6177163;23;20036;-82
2022/05/10 16:53:07;;;;;;;6.70;3.05;;;;;;;23.38;39.34;101337.41;6169305;23;20010;-81
2022/05/10 16:55:33;;;;;;;7.03;3.17;;;;;;;23.36;39.30;101339.47;6170329;23;20006;-81
2022/05/10 16:57:59;;;;;;;8.32;2.65;;;;;;;23.29;40.11;101335.84;6169428;23;20454;-83
2022/05/10 17:00:26;;;;;;;7.57;2.53;;;;;;;23.28;39.74;101348.56;6172991;23;20088;-82
2022/05/10 17:02:52;;;;;;;5.35;2.80;;;;;;;23.15;39.70;101339.41;6173402;23;20014;-82
2022/05/10 17:05:21;;;;;;;8.50;2.70;;;;;;;23.09;39.28;101343.72;6176223;23;20028;-81
2022/05/10 17:07:48;;;;;;;6.68;2.70;;;;;;;23.05;39.68;101345.94;6173547;23;20009;-82
2022/05/10 17:10:23;;;;;;;12.90;3.70;;;;;;;22.94;39.14;101338.25;6175625;23;20009;-82
2022/05/10 17:12:49;;;;;;;8.25;3.33;;;;;;;22.86;39.55;101344.59;6174595;23;20005;-81
2022/05/10 17:15:14;;;;;;;11.73;3.10;;;;;;;22.78;39.29;101344.69;6175064;23;20006;-82
2022/05/10 17:17:40;;;;;;;10.30;3.00;;;;;;;22.75;39.53;101355.06;6176604;23;20009;-82
2022/05/10 17:20:09;;;;;;;5.32;2.67;;;;;;;22.66;39.71;101367.84;6149525;23;20016;-81
2022/05/10 17:22:35;;;;;;;5.50;2.50;;;;;;;22.54;38.76;101362.88;6171295;23;20012;-81
2022/05/10 17:25:01;;;;;;;5.97;2.35;;;;;;;22.46;39.18;101356.72;6170289;23;20013;-81
2022/05/10 17:27:34;;;;;;;6.93;2.30;;;;;;;22.32;39.09;101363.78;6146629;23;20009;-81
2022/05/10 17:30:00;;;;;;;11.02;2.75;;;;;;;22.23;37.83;101359.41;6168249;23;20013;-81
2022/05/10 17:32:25;;;;;;;7.88;2.40;;;;;;;22.13;38.60;101362.38;6170597;23;20024;-82
2022/05/10 17:34:51;;;;;;;4.97;2.50;;;;;;;22.00;38.80;101354.88;6168565;23;20002;-82
2022/05/10 17:37:17;;;;;;;6.80;2.30;;;;;;;21.96;39.08;101351.66;6171059;23;20025;-81
2022/05/10 17:39:43;;;;;;;13.60;2.40;;;;;;;21.90;39.24;101359.66;6170670;23;20005;-83
2022/05/10 17:42:09;;;;;;;7.93;2.38;;;;;;;21.83;40.15;101359.53;6172857;23;20020;-81
2022/05/10 17:44:38;;;;;;;6.95;2.50;;;;;;;21.70;39.66;101368.25;6175694;23;20069;-83
2022/05/10 17:47:04;;;;;;;7.88;2.30;;;;;;;21.68;40.75;101361.34;6169150;23;20009;-80
2022/05/10 17:49:29;;;;;;;11.82;2.80;;;;;;;21.59;41.30;101358.69;6152203;23;20002;-82
2022/05/10 17:51:56;;;;;;;8.63;3.03;;;;;;;21.60;42.17;101367.66;6171422;23;20009;-83
2022/05/10 17:54:21;;;;;;;4.97;2.92;;;;;;;21.56;42.66;101363.59;6170146;23;20001;-80
2022/05/10 17:56:47;;;;;;;9.85;3.17;;;;;;;21.51;42.93;101368.69;6169844;23;20056;-81
2022/05/10 17:59:16;;;;;;;8.68;3.08;;;;;;;21.50;43.28;101356.19;6173584;23;20024;-83
2022/05/10 18:01:42;;;;;;;4.68;2.70;;;;;;;21.49;43.87;101368.88;6148289;23;20006;-83
2022/05/10 18:04:13;;;;;;;4.75;2.92;;;;;;;21.39;44.59;101371.75;6174400;23;20064;-82
2022/05/10 18:06:39;;;;;;;8.75;3.50;;;;;;;21.31;45.30;101358.28;6175930;23;20021;-82
2022/05/10 18:09:05;;;;;;;13.45;3.47;;;;;;;21.32;45.34;101362.69;6150026;23;20002;-83
2022/05/10 18:11:33;;;;;;;10.25;3.42;;;;;;;21.30;46.21;101378.22;6175191;23;20036;-83
2022/05/10 18:14:00;;;;;;;10.93;4.68;;;;;;;21.21;45.81;101371.16;6173151;23;20044;-83
2022/05/10 18:16:26;;;;;;;4.60;3.08;;;;;;;21.17;45.97;101373.38;6150195;23;20005;-83
2022/05/10 18:18:54;;;;;;;9.18;3.75;;;;;;;21.04;46.56;101382.00;6152320;23;20013;-83
2022/05/10 18:21:20;;;;;;;6.00;3.75;;;;;;;21.02;45.58;101375.94;6146934;23;20017;-82
2022/05/10 18:23:46;;;;;;;7.88;4.18;;;;;;;20.95;45.78;101382.22;6148121;23;20092;-83
2022/05/10 18:26:13;;;;;;;8.00;4.30;;;;;;;20.79;45.34;101391.19;6146918;23;20010;-82
2022/05/10 18:28:41;;;;;;;6.43;3.70;;;;;;;20.75;45.65;101388.00;6149330;23;20068;-84
2022/05/10 18:31:06;;;;;;;7.22;3.67;;;;;;;20.72;46.01;101393.75;6143972;23;20458;-81
2022/05/10 18:33:32;;;;;;;11.32;4.53;;;;;;;20.55;47.12;101394.72;6179995;23;20009;-81
2022/05/10 18:36:00;;;;;;;10.15;4.65;;;;;;;20.55;46.66;101398.28;6131022;23;20013;-82
2022/05/10 18:38:26;;;;;;;11.55;4.07;;;;;;;20.48;47.43;101392.72;6181182;23;20008;-82
2022/05/10 18:40:52;;;;;;;10.38;4.20;;;;;;;20.40;47.80;101391.88;6180860;23;19992;-82
2022/05/10 18:43:22;;;;;;;15.05;3.80;;;;;;;20.27;48.28;101387.00;6155989;23;20002;-82
2022/05/10 18:45:56;;;;;;;9.45;4.13;;;;;;;20.29;47.92;101388.50;6181561;23;20009;-82
2022/05/10 18:48:21;;;;;;;9.07;4.28;;;;;;;20.22;48.59;101390.19;6181591;23;19993;-82
2022/05/10 18:50:49;;;;;;;13.43;4.57;;;;;;;20.20;48.38;101389.53;6181308;23;19994;-82
2022/05/10 18:53:21;;;;;;;10.68;4.65;;;;;;;20.12;48.56;101382.25;6181183;23;20005;-83
2022/05/10 18:55:46;;;;;;;8.43;4.63;;;;;;;20.06;48.93;101377.53;6155340;23;19994;-82
2022/05/10 18:58:12;;;;;;;9.55;4.20;;;;;;;20.01;49.52;101387.13;6180962;23;20030;-81
2022/05/10 19:00:38;;;;;;;9.95;4.40;;;;;;;19.92;49.34;101381.72;6181874;23;20004;-80
2022/05/10 19:03:04;;;;;;;11.65;4.10;;;;;;;19.96;49.34;101393.84;6179611;23;20009;-82
2022/05/10 19:05:30;;;;;;;11.10;4.80;;;;;;;19.84;48.46;101394.34;6182477;23;20849;-81
2022/05/10 19:07:56;;;;;;;10.77;4.78;;;;;;;19.84;48.95;101397.88;6181210;23;20013;-81
2022/05/10 19:10:25;;;;;;;11.23;5.03;;;;;;;19.75;48.78;101385.38;6183624;23;20013;-82
2022/05/10 19:12:51;;;;;;;8.02;3.85;;;;;;;19.64;47.98;101389.22;6134376;23;20017;-82
2022/05/10 19:15:22;;;;;;;9.15;3.63;;;;;;;19.54;47.15;101389.34;6159613;23;19985;-82
2022/05/10 19:17:48;;;;;;;8.02;3.35;;;;;;;19.42;45.48;101380.72;6158714;23;20033;-82
2022/05/10 19:20:22;;;;;;;5.63;2.70;;;;;;;19.36;46.05;101392.13;6184801;23;20009;-82
2022/05/10 19:22:48;;;;;;;8.45;2.65;;;;;;;19.30;45.03;101390.09;6135017;23;20009;-82
2022/05/10 19:25:17;;;;;;;6.05;2.72;;;;;;;19.19;44.71;101385.84;6158428;23;20005;-81
2022/05/10 19:27:43;;;;;;;8.98;2.55;;;;;;;19.20;45.38;101395.63;6183474;23;20085;-81
2022/05/10 19:30:15;;;;;;;3.03;1.95;;;;;;;19.14;44.56;101395.41;6180752;23;19998;-81
2022/05/10 19:32:41;;;;;;;6.53;2.50;;;;;;;19.03;44.80;101385.75;6182864;23;19997;-81
2022/05/10 19:35:07;;;;;;;5.30;2.22;;;;;;;18.99;45.00;101377.16;6158378;23;20005;-82
2022/05/10 19:37:32;;;;;;;4.90;2.20;;;;;;;18.95;44.88;101391.09;6157943;23;20005;-82
2022/05/10 19:39:58;;;;;;;6.75;2.03;;;;;;;18.89;44.79;101389.88;6182627;23;19997;-82
2022/05/10 19:42:26;;;;;;;5.10;2.30;;;;;;;18.86;44.95;101395.56;6184127;23;20009;-81
2022/05/10 19:44:52;;;;;;;6.10;1.83;;;;;;;18.82;44.75;101389.63;6184169;23;19990;-82
2022/05/10 19:47:18;;;;;;;6.03;2.10;;;;;;;18.84;44.51;101386.81;6183196;23;20020;-81
2022/05/10 19:49:44;;;;;;;6.22;2.45;;;;;;;18.73;44.87;101387.88;6132747;23;20004;-81
2022/05/10 19:52:11;;;;;;;4.45;1.95;;;;;;;18.77;45.16;101388.41;6183408;23;20017;-80
2022/05/10 19:54:36;;;;;;;6.22;2.28;;;;;;;18.72;44.84;101385.34;6157378;23;20049;-81
2022/05/10 19:57:05;;;;;;;5.07;2.00;;;;;;;18.69;45.07;101389.22;6158205;23;20009;-81
2022/05/10 19:59:30;;;;;;;3.83;2.00;;;;;;;18.69;44.88;101389.22;6184257;23;20050;-81
2022/05/10 20:07:24;;;;;;;4.32;1.90;;;;;;;18.55;45.82;101400.53;6183153;23;20048;-81
2022/05/10 20:09:55;;;;;;;6.95;1.90;;;;;;;18.52;46.09;101392.78;6181742;23;20068;-81
2022/05/10 20:12:20;;;;;;;5.40;1.80;;;;;;;18.48;45.90;101393.09;6157449;23;20005;-81
2022/05/10 20:14:46;;;;;;;3.75;2.05;;;;;;;18.46;46.06;101392.41;6183397;23;19997;-82
2022/05/10 20:17:15;;;;;;;4.60;1.80;;;;;;;18.43;46.23;101391.88;6184101;23;19989;-81
2022/05/10 20:19:41;;;;;;;4.65;1.80;;;;;;;18.37;46.73;101390.66;6184245;23;20034;-81
2022/05/10 20:22:16;;;;;;;2.85;1.83;;;;;;;18.33;46.34;101386.56;6184294;23;20027;-81
2022/05/10 20:24:42;;;;;;;5.80;1.50;;;;;;;18.30;46.56;101395.81;6157003;23;20000;-81
2022/05/10 20:27:16;;;;;;;6.85;1.90;;;;;;;18.32;46.43;101387.59;6183824;23;20029;-81
2022/05/10 20:29:44;;;;;;;5.75;1.95;;;;;;;18.26;46.77;101394.41;6180973;23;20054;-81
2022/05/10 20:32:09;;;;;;;2.85;1.83;;;;;;;18.25;47.14;101391.88;6156376;23;20033;-81
2022/05/10 20:34:34;;;;;;;6.63;2.10;;;;;;;18.22;47.32;101394.88;6182692;23;20013;-81
2022/05/10 20:37:00;;;;;;;5.07;2.03;;;;;;;18.16;47.73;101387.44;6183280;23;20017;-81
2022/05/10 20:39:25;;;;;;;2.50;1.85;;;;;;;18.19;47.79;101387.97;6184265;23;20249;-82
2022/05/10 20:41:50;;;;;;;4.17;2.10;;;;;;;18.21;47.88;101393.19;6183255;23;20050;-82
2022/05/10 20:44:17;;;;;;;4.43;1.80;;;;;;;18.15;47.40;101385.75;6159441;23;20253;-80
2022/05/10 20:46:43;;;;;;;3.08;1.90;;;;;;;18.18;47.90;101388.13;6184406;23;19998;-81
2022/05/10 20:49:08;;;;;;;4.78;1.90;;;;;;;18.15;48.11;101383.88;6157322;23;20008;-81
2022/05/10 20:51:34;;;;;;;5.25;2.50;;;;;;;18.11;48.15;101388.75;6184511;23;20005;-81
2022/05/10 20:53:59;;;;;;;2.50;1.80;;;;;;;18.09;47.88;101389.91;6184156;23;20044;-81
2022/05/10 20:56:24;;;;;;;8.82;2.03;;;;;;;18.04;47.94;101382.28;6184715;23;20013;-81
2022/05/10 20:58:49;;;;;;;2.57;1.97;;;;;;;18.09;48.00;101376.47;6184228;23;20005;-81
2022/05/10 21:01:15;;;;;;;4.37;2.43;;;;;;;18.03;48.35;101377.91;6184405;23;20257;-80
2022/05/10 21:03:43;;;;;;;4.03;2.17;;;;;;;18.09;48.05;101380.00;6183978;23;20252;-81
2022/05/10 21:06:08;;;;;;;7.07;3.50;;;;;;;18.02;48.62;101372.69;6183957;23;20013;-81
2022/05/10 21:08:34;;;;;;;4.55;2.47;;;;;;;18.01;48.41;101368.31;6183024;23;20024;-80
2022/05/10 21:11:05;;;;;;;3.05;1.80;;;;;;;18.00;48.11;101370.19;6182689;23;20015;-81
2022/05/10 21:13:33;;;;;;;5.63;1.90;;;;;;;17.97;48.17;101366.91;6180892;23;19993;-81
2022/05/10 21:16:00;;;;;;;8.88;2.10;;;;;;;17.97;49.12;101377.69;6182053;23;20037;-81
2022/05/10 21:18:26;;;;;;;5.65;1.88;;;;;;;17.96;49.35;101374.16;6174836;23;20005;-81
2022/05/10 21:20:53;;;;;;;8.50;2.08;;;;;;;17.94;49.12;101373.47;6165821;23;20057;-81
2022/05/10 21:23:22;;;;;;;5.55;2.35;;;;;;;17.92;48.65;101362.88;6165947;23;20017;-81
2022/05/10 21:25:47;;;;;;;10.50;2.30;;;;;;;17.90;48.56;101358.63;6165817;23;20383;-81
2022/05/10 21:28:13;;;;;;;7.55;2.03;;;;;;;17.86;48.63;101360.75;6165677;23;20006;-80
2022/05/10 21:31:25;;;;;;;5.72;2.10;;;;;;;17.85;48.76;101355.53;6140095;23;20011;-81
2022/05/10 21:33:25;;;;;;;5.93;2.05;;;;;;;17.84;49.11;101352.00;6148509;23;20029;-82
2022/05/10 21:35:51;;;;;;;7.95;2.15;;;;;;;17.78;49.08;101349.09;6171865;23;20016;-81
2022/05/10 21:38:24;;;;;;;6.20;2.03;;;;;;;17.70;49.21;101348.00;6178088;23;20092;-80
2022/05/10 21:40:50;;;;;;;7.80;2.10;;;;;;;17.69;49.74;101340.09;6169613;23;20020;-81
2022/05/10 21:43:18;;;;;;;8.10;2.30;;;;;;;17.65;49.73;101346.75;6170746;23;20066;-80
2022/05/10 21:45:46;;;;;;;5.07;2.13;;;;;;;17.64;49.66;101339.72;6170597;23;20009;-81
2022/05/10 21:48:21;;;;;;;5.75;2.55;;;;;;;17.65;49.21;101336.88;6171507;23;20006;-81
2022/05/10 21:50:51;;;;;;;5.15;2.35;;;;;;;17.61;49.42;101340.84;6170177;23;20013;-81
2022/05/10 21:53:17;;;;;;;6.60;2.45;;;;;;;17.60;49.23;101332.94;6170201;23;20005;-80
2022/05/10 21:55:42;;;;;;;5.43;1.98;;;;;;;17.59;49.69;101339.31;6171332;23;20033;-81
2022/05/10 21:58:08;;;;;;;6.63;2.50;;;;;;;17.52;50.01;101336.38;6171092;23;20001;-81
2022/05/10 22:00:39;;;;;;;4.43;2.42;;;;;;;17.50;50.06;101347.28;6168464;23;20005;-82
2022/05/10 22:03:08;;;;;;;5.50;2.22;;;;;;;17.52;50.09;101347.97;6166466;23;20021;-81
2022/05/10 22:05:38;;;;;;;7.10;2.63;;;;;;;17.45;50.20;101336.13;6142645;23;20029;-81